Time;durP1;ratioP1;P1;durP2;ratioP2;P2;SDS_P1;SDS_P2;PMS_P1;PMS_P2;Temp;Humidity;BMP_temperature;BMP_pressure;BME280_temperature;BME280_humidity;BME280_pressure;Samples;Min_cycle;Max_cycle;Signal;HPM_P1;HPM_P2
2022/07/06 00:02:23;;;;;;;7.93;1.60;;;13.60;99.90;;;;;;7343237;32;20691;-62
2022/07/06 00:06:25;;;;;;;5.18;1.48;;;13.40;99.90;;;;;;7342781;32;20102;-62
2022/07/06 00:10:27;;;;;;;4.93;1.30;;;13.30;99.90;;;;;;7336506;32;20118;-63
2022/07/06 00:14:28;;;;;;;5.65;1.50;;;13.20;99.90;;;;;;7345880;32;20190;-62
2022/07/06 00:18:30;;;;;;;4.25;1.70;;;13.10;99.90;;;;;;7336929;32;20600;-61
2022/07/06 00:22:32;;;;;;;4.00;2.00;;;12.80;99.90;;;;;;7342260;32;20190;-62
2022/07/06 00:26:34;;;;;;;7.22;1.40;;;12.70;99.90;;;;;;7344315;32;20242;-62
2022/07/06 00:30:36;;;;;;;4.43;1.58;;;12.60;99.90;;;;;;7344769;32;20202;-63
2022/07/06 00:34:41;;;;;;;7.72;1.73;;;12.50;99.90;;;;;;7344000;32;20198;-63
2022/07/06 00:38:43;;;;;;;2.47;1.50;;;12.30;99.90;;;;;;7341150;32;20256;-62
2022/07/06 00:42:46;;;;;;;4.20;2.35;;;12.30;99.90;;;;;;7336842;32;20139;-62
2022/07/06 00:46:48;;;;;;;5.50;1.58;;;12.00;99.90;;;;;;7340821;32;20124;-63
2022/07/06 00:50:50;;;;;;;4.10;1.55;;;11.90;99.90;;;;;;7344555;32;20103;-62
2022/07/06 00:54:52;;;;;;;4.72;1.80;;;11.80;99.90;;;;;;7346342;32;20464;-62
2022/07/06 00:58:54;;;;;;;3.90;1.60;;;11.70;99.90;;;;;;7345911;32;20125;-63
2022/07/06 01:02:57;;;;;;;3.78;1.60;;;11.50;99.90;;;;;;7343701;32;20099;-62
2022/07/06 01:06:58;;;;;;;2.75;1.58;;;11.40;99.90;;;;;;7347485;32;20259;-63
2022/07/06 01:11:01;;;;;;;3.83;1.67;;;11.30;99.90;;;;;;7334136;32;20133;-62
2022/07/06 01:15:08;;;;;;;7.55;1.90;;;11.20;99.90;;;;;;7332509;32;20123;-63
2022/07/06 01:19:10;;;;;;;6.03;1.80;;;11.10;99.90;;;;;;7343159;32;20575;-62
2022/07/06 01:23:11;;;;;;;2.92;1.80;;;11.00;99.90;;;;;;7335971;32;20504;-62
2022/07/06 01:27:13;;;;;;;2.60;1.80;;;10.90;99.90;;;;;;7345462;32;20169;-62
2022/07/06 01:31:24;;;;;;;5.82;1.80;;;10.80;99.90;;;;;;7344339;32;20292;-63
2022/07/06 01:35:31;;;;;;;3.65;1.80;;;10.80;99.90;;;;;;7333966;32;20840;-62
2022/07/06 01:39:33;;;;;;;3.95;2.12;;;10.80;99.90;;;;;;7338930;32;20333;-62
2022/07/06 01:43:35;;;;;;;2.90;1.90;;;10.70;99.90;;;;;;7338428;32;20598;-62
2022/07/06 01:47:36;;;;;;;4.75;2.08;;;10.70;99.90;;;;;;7342247;32;20099;-63
2022/07/06 01:51:39;;;;;;;3.10;1.55;;;10.60;99.90;;;;;;7343820;32;20632;-62
2022/07/06 01:55:41;;;;;;;7.62;2.15;;;10.60;99.90;;;;;;7338417;32;20107;-62
2022/07/06 01:59:42;;;;;;;2.92;1.75;;;10.50;99.90;;;;;;7339609;32;20116;-62
2022/07/06 02:03:45;;;;;;;4.93;2.35;;;10.50;99.90;;;;;;7345569;32;20174;-62
2022/07/06 02:07:47;;;;;;;3.25;1.80;;;10.40;99.90;;;;;;7341967;32;20230;-62
2022/07/06 02:11:49;;;;;;;3.50;1.80;;;10.40;99.90;;;;;;7341008;32;20218;-62
2022/07/06 02:15:51;;;;;;;5.87;3.03;;;10.50;99.90;;;;;;7339794;32;20095;-63
2022/07/06 02:19:53;;;;;;;5.50;1.92;;;10.60;99.90;;;;;;7335796;32;20355;-61
2022/07/06 02:23:55;;;;;;;5.68;1.98;;;10.60;99.90;;;;;;7341233;32;20293;-62
2022/07/06 02:27:57;;;;;;;5.60;2.42;;;10.60;99.90;;;;;;7338241;32;20115;-62
2022/07/06 02:31:58;;;;;;;8.55;2.00;;;10.70;99.90;;;;;;7345149;32;20192;-62
2022/07/06 02:36:00;;;;;;;4.87;1.90;;;10.70;99.90;;;;;;7337912;32;21156;-61
2022/07/06 02:40:02;;;;;;;4.12;1.80;;;10.70;99.90;;;;;;7341951;32;20111;-63
2022/07/06 02:44:04;;;;;;;5.12;1.98;;;10.70;99.90;;;;;;7342249;32;20190;-61
2022/07/06 02:48:06;;;;;;;4.07;1.83;;;10.70;99.90;;;;;;7337007;32;20107;-62
2022/07/06 02:52:07;;;;;;;5.93;1.95;;;10.70;99.90;;;;;;7331553;32;20169;-62
2022/07/06 02:56:09;;;;;;;2.60;1.70;;;10.70;99.90;;;;;;7344638;32;20857;-61
2022/07/06 03:00:11;;;;;;;4.22;2.03;;;10.70;99.90;;;;;;7338434;32;20125;-61
2022/07/06 03:04:13;;;;;;;4.07;1.77;;;10.70;99.90;;;;;;7345401;32;20125;-61
2022/07/06 03:08:15;;;;;;;3.90;1.70;;;10.90;99.90;;;;;;7337042;32;20114;-61
2022/07/06 03:12:17;;;;;;;3.25;1.98;;;10.90;99.90;;;;;;7342365;32;20253;-62
2022/07/06 03:16:19;;;;;;;5.00;2.50;;;10.90;99.90;;;;;;7346323;32;20238;-61
2022/07/06 03:20:20;;;;;;;2.62;2.05;;;11.00;99.90;;;;;;7342733;32;20114;-61
2022/07/06 03:24:22;;;;;;;4.37;2.00;;;10.90;99.90;;;;;;7344394;32;20515;-61
2022/07/06 03:28:24;;;;;;;4.37;2.03;;;11.00;99.90;;;;;;7345469;32;20741;-59
2022/07/06 03:32:27;;;;;;;7.28;2.20;;;11.00;99.90;;;;;;7346483;32;20522;-61
2022/07/06 03:36:28;;;;;;;3.65;1.95;;;11.10;99.90;;;;;;7336275;32;20141;-61
2022/07/06 03:40:37;;;;;;;6.25;2.58;;;11.10;99.90;;;;;;7341819;32;20217;-61
2022/07/06 03:44:39;;;;;;;4.53;2.40;;;11.20;99.90;;;;;;7344055;32;20573;-61
2022/07/06 03:48:40;;;;;;;4.50;2.35;;;11.20;99.90;;;;;;7344361;32;20340;-62
2022/07/06 03:52:42;;;;;;;4.53;2.67;;;11.20;99.90;;;;;;7341004;32;20936;-62
2022/07/06 03:56:44;;;;;;;4.82;2.00;;;11.20;99.90;;;;;;7346549;32;20182;-61
2022/07/06 04:00:46;;;;;;;7.28;2.20;;;11.10;99.90;;;;;;7336766;32;20126;-62
2022/07/06 04:04:47;;;;;;;4.10;2.08;;;11.10;99.90;;;;;;7343950;32;20223;-61
2022/07/06 04:08:49;;;;;;;4.93;2.15;;;11.00;99.90;;;;;;7348737;32;20452;-62
2022/07/06 04:12:51;;;;;;;4.70;2.05;;;11.00;99.90;;;;;;7343517;32;20152;-61
2022/07/06 04:16:53;;;;;;;3.75;2.17;;;10.90;99.90;;;;;;7345584;32;20223;-61
2022/07/06 04:20:57;;;;;;;4.47;2.10;;;11.00;99.90;;;;;;7341949;32;20693;-62
2022/07/06 04:24:58;;;;;;;4.10;1.95;;;11.00;99.90;;;;;;7341523;32;20182;-61
2022/07/06 04:29:00;;;;;;;8.63;1.92;;;11.00;99.90;;;;;;7339917;32;20259;-62
2022/07/06 04:33:02;;;;;;;3.58;2.33;;;11.00;99.90;;;;;;7343950;32;20107;-61
2022/07/06 04:37:04;;;;;;;4.47;1.95;;;11.10;99.90;;;;;;7342211;32;20292;-61
2022/07/06 04:41:06;;;;;;;4.62;2.20;;;11.10;99.90;;;;;;7336069;32;20326;-61
2022/07/06 04:45:09;;;;;;;3.50;2.00;;;11.20;99.90;;;;;;7339271;32;20524;-63
2022/07/06 04:49:10;;;;;;;3.78;1.80;;;11.40;99.90;;;;;;7338199;32;20152;-64
2022/07/06 04:53:12;;;;;;;2.97;2.22;;;11.60;99.90;;;;;;7341586;32;20493;-65
2022/07/06 04:57:14;;;;;;;5.57;2.47;;;11.70;99.90;;;;;;7339024;32;20099;-65
2022/07/06 05:01:16;;;;;;;6.03;2.50;;;11.80;99.90;;;;;;7338213;32;20279;-65
2022/07/06 05:05:18;;;;;;;6.47;2.70;;;12.10;99.90;;;;;;7335778;32;20222;-65
2022/07/06 05:09:27;;;;;;;4.80;2.85;;;12.60;99.90;;;;;;7335975;32;20230;-66
2022/07/06 05:13:43;;;;;;;6.97;4.32;;;13.50;99.90;;;;;;7344027;32;20334;-66
2022/07/06 05:17:44;;;;;;;9.85;4.30;;;14.00;99.90;;;;;;7337417;32;20253;-66
2022/07/06 05:21:46;;;;;;;8.10;3.97;;;14.60;99.90;;;;;;7337201;32;20192;-66
2022/07/06 05:25:48;;;;;;;8.95;3.72;;;14.90;99.90;;;;;;7337133;32;20134;-66
2022/07/06 05:29:50;;;;;;;8.30;4.65;;;15.10;99.90;;;;;;7342076;32;20280;-67
2022/07/06 05:33:52;;;;;;;7.65;4.15;;;15.20;99.90;;;;;;7342592;32;20103;-66
2022/07/06 05:37:53;;;;;;;7.82;3.40;;;15.20;99.90;;;;;;7331636;32;20196;-66
2022/07/06 05:41:55;;;;;;;9.45;3.95;;;15.10;99.90;;;;;;7339957;32;20601;-66
2022/07/06 05:45:57;;;;;;;7.70;3.87;;;15.30;99.90;;;;;;7346388;32;20458;-60
2022/07/06 05:50:14;;;;;;;8.38;4.22;;;15.10;99.90;;;;;;7344842;32;20776;-66
2022/07/06 05:54:16;;;;;;;7.62;3.75;;;15.20;99.90;;;;;;7347915;32;20111;-66
2022/07/06 05:58:18;;;;;;;8.20;3.70;;;15.20;99.90;;;;;;7346855;32;20529;-66
2022/07/06 06:02:20;;;;;;;14.20;8.75;;;15.40;99.90;;;;;;7342467;32;20190;-66
2022/07/06 06:06:21;;;;;;;7.97;3.97;;;16.10;99.90;;;;;;7350473;32;20504;-66
2022/07/06 06:10:24;;;;;;;9.52;3.80;;;15.70;99.90;;;;;;7340679;32;20184;-66
2022/07/06 06:14:25;;;;;;;11.43;4.22;;;15.50;99.90;;;;;;7354228;32;20121;-67
2022/07/06 06:18:27;;;;;;;5.22;2.83;;;15.20;99.90;;;;;;7348840;32;20123;-66
2022/07/06 06:22:30;;;;;;;11.12;4.12;;;14.90;99.90;;;;;;7343282;32;20129;-66
2022/07/06 06:26:32;;;;;;;8.52;4.07;;;14.80;99.90;;;;;;7344517;32;20192;-66
2022/07/06 06:30:35;;;;;;;8.85;4.20;;;14.70;99.90;;;;;;7341517;32;20119;-66
2022/07/06 06:34:37;;;;;;;6.95;3.40;;;14.50;99.90;;;;;;7348680;32;20478;-66
2022/07/06 06:38:39;;;;;;;8.82;3.28;;;14.50;99.90;;;;;;7342104;32;20159;-66
2022/07/06 06:42:41;;;;;;;6.60;2.85;;;14.70;99.90;;;;;;7349794;32;20115;-66
2022/07/06 06:46:42;;;;;;;5.15;2.33;;;14.90;99.90;;;;;;7350227;32;20252;-60
2022/07/06 06:50:45;;;;;;;6.68;2.05;;;15.30;99.90;;;;;;7346958;32;20104;-59
2022/07/06 06:54:47;;;;;;;4.45;1.62;;;15.60;99.90;;;;;;7355017;32;20119;-59
2022/07/06 06:58:49;;;;;;;6.68;1.67;;;15.80;99.90;;;;;;7345673;32;20168;-59
2022/07/06 07:03:11;;;;;;;6.05;1.30;;;15.90;99.90;;;;;;7357563;32;20120;-59
2022/07/06 07:07:12;;;;;;;6.68;1.30;;;16.00;99.90;;;;;;7353421;32;20416;-59
2022/07/06 07:11:14;;;;;;;8.65;1.55;;;16.10;99.90;;;;;;7347015;32;20519;-59
2022/07/06 07:15:16;;;;;;;3.60;1.27;;;16.00;99.90;;;;;;7342499;32;20574;-59
2022/07/06 07:19:18;;;;;;;4.82;1.10;;;16.10;99.90;;;;;;7353011;32;20464;-60
2022/07/06 07:23:20;;;;;;;5.40;1.25;;;16.20;99.90;;;;;;7345484;32;20112;-58
2022/07/06 07:27:21;;;;;;;5.62;1.05;;;16.30;99.90;;;;;;7344977;32;20129;-59
2022/07/06 07:31:23;;;;;;;2.97;0.70;;;16.40;99.90;;;;;;7342214;32;20107;-65
2022/07/06 07:35:25;;;;;;;6.70;3.40;;;16.60;99.90;;;;;;7339956;32;20099;-65
2022/07/06 07:39:27;;;;;;;8.82;1.02;;;16.70;99.90;;;;;;7355728;32;20107;-64
2022/07/06 07:43:29;;;;;;;2.90;1.02;;;16.70;99.90;;;;;;7360486;32;20145;-65
2022/07/06 07:47:30;;;;;;;4.72;0.80;;;16.80;99.90;;;;;;7360051;32;20168;-64
2022/07/06 07:51:32;;;;;;;6.05;1.20;;;16.90;99.90;;;;;;7347915;32;20226;-65
2022/07/06 07:55:34;;;;;;;7.07;1.62;;;17.10;99.90;;;;;;7348663;32;20595;-64
2022/07/06 07:59:43;;;;;;;5.70;1.27;;;17.20;99.90;;;;;;7344354;32;20389;-66
2022/07/06 08:03:45;;;;;;;6.37;1.20;;;17.30;99.90;;;;;;7350539;32;20206;-64
2022/07/06 08:07:47;;;;;;;4.43;1.08;;;17.20;99.90;;;;;;7351476;32;20095;-65
2022/07/06 08:11:49;;;;;;;2.40;0.57;;;16.90;99.90;;;;;;7353687;32;20817;-65
2022/07/06 08:15:51;;;;;;;3.83;0.62;;;17.00;99.90;;;;;;7348312;32;20793;-66
2022/07/06 08:19:52;;;;;;;5.05;1.02;;;17.30;99.90;;;;;;7355019;32;20191;-64
2022/07/06 08:23:55;;;;;;;6.72;0.70;;;17.30;99.90;;;;;;7346326;32;20179;-64
2022/07/06 08:27:57;;;;;;;2.58;0.70;;;17.50;99.90;;;;;;7345973;32;20095;-66
2022/07/06 08:31:59;;;;;;;2.83;0.45;;;17.80;99.90;;;;;;7349186;32;20178;-67
2022/07/06 08:36:13;;;;;;;3.92;0.55;;;17.70;99.90;;;;;;7358192;32;20571;-64
2022/07/06 08:40:15;;;;;;;3.87;0.50;;;17.90;99.90;;;;;;7347865;32;20477;-64
2022/07/06 08:44:18;;;;;;;4.53;0.50;;;18.30;99.90;;;;;;7339652;32;20164;-63
2022/07/06 08:48:23;;;;;;;5.32;0.60;;;18.40;99.90;;;;;;7352293;32;20137;-63
2022/07/06 08:52:25;;;;;;;3.03;0.60;;;18.60;99.90;;;;;;7341396;32;20264;-63
2022/07/06 08:56:28;;;;;;;3.12;0.60;;;19.00;99.90;;;;;;7347292;32;20284;-65
2022/07/06 09:00:32;;;;;;;4.57;0.68;;;20.40;99.90;;;;;;7352222;32;20355;-64
2022/07/06 09:04:36;;;;;;;2.20;0.80;;;21.90;99.90;;;;;;7354062;32;20499;-64
2022/07/06 09:08:38;;;;;;;9.07;2.55;;;21.80;99.90;;;;;;7349819;32;20222;-64
2022/07/06 09:12:40;;;;;;;3.50;0.95;;;21.30;99.90;;;;;;7346673;32;20198;-64
2022/07/06 09:16:42;;;;;;;4.20;0.88;;;20.60;99.90;;;;;;7345054;32;20107;-63
2022/07/06 09:20:44;;;;;;;4.30;1.00;;;20.00;99.90;;;;;;7344655;32;20138;-63
2022/07/06 09:24:46;;;;;;;4.95;0.70;;;20.70;99.90;;;;;;7350053;32;20256;-63
2022/07/06 09:28:49;;;;;;;3.12;0.70;;;20.10;99.90;;;;;;7333782;32;20095;-63
2022/07/06 09:32:52;;;;;;;6.00;1.00;;;20.20;99.90;;;;;;7345211;32;20235;-66
2022/07/06 09:36:54;;;;;;;4.40;0.70;;;20.20;99.50;;;;;;7350853;32;20249;-64
2022/07/06 09:40:56;;;;;;;2.22;0.70;;;19.70;99.90;;;;;;7340677;32;20816;-66
2022/07/06 09:44:58;;;;;;;3.47;1.00;;;19.40;99.90;;;;;;7339647;32;20145;-66
2022/07/06 09:49:00;;;;;;;2.47;0.60;;;19.60;99.90;;;;;;7341627;32;20204;-67
2022/07/06 09:53:02;;;;;;;4.93;0.95;;;19.60;99.90;;;;;;7352846;32;20783;-67
2022/07/06 09:57:05;;;;;;;3.80;0.90;;;19.80;99.90;;;;;;7353713;32;20108;-68
2022/07/06 10:01:30;;;;;;;4.93;0.55;;;19.90;99.90;;;;;;7348044;32;20147;-65
2022/07/06 10:05:32;;;;;;;4.97;0.70;;;20.40;98.70;;;;;;7332839;32;20190;-65
2022/07/06 10:09:34;;;;;;;1.30;0.77;;;20.70;96.80;;;;;;7339933;32;20091;-65
2022/07/06 10:13:37;;;;;;;1.45;0.60;;;21.00;96.60;;;;;;7339079;32;20111;-65
2022/07/06 10:17:40;;;;;;;7.03;0.93;;;21.80;95.30;;;;;;7353344;32;20513;-64
2022/07/06 10:21:43;;;;;;;3.50;0.70;;;22.30;93.20;;;;;;7358892;32;20159;-64
2022/07/06 10:25:46;;;;;;;1.67;0.45;;;22.60;95.20;;;;;;7333711;32;20183;-64
2022/07/06 10:29:48;;;;;;;2.30;0.60;;;23.00;91.40;;;;;;7331664;32;20679;-64
2022/07/06 10:33:50;;;;;;;2.75;0.88;;;23.30;91.80;;;;;;7354738;32;20389;-64
2022/07/06 10:38:04;;;;;;;3.20;0.57;;;23.40;86.80;;;;;;7349355;32;20151;-64
2022/07/06 10:42:06;;;;;;;4.78;0.95;;;23.70;86.20;;;;;;7356690;32;20147;-64
2022/07/06 10:46:15;;;;;;;2.12;0.60;;;22.80;87.20;;;;;;7356561;32;20112;-64
2022/07/06 10:50:18;;;;;;;2.22;0.60;;;22.70;85.80;;;;;;7355496;32;20118;-64
2022/07/06 10:54:20;;;;;;;1.92;0.52;;;21.90;89.70;;;;;;7356829;32;20190;-64
2022/07/06 10:58:41;;;;;;;2.83;0.43;;;21.80;91.00;;;;;;7355244;32;20482;-64
2022/07/06 11:02:43;;;;;;;2.35;0.60;;;22.00;90.30;;;;;;7356418;32;20123;-64
2022/07/06 11:06:45;;;;;;;5.87;0.70;;;22.00;92.20;;;;;;7357041;32;20133;-64
2022/07/06 11:10:48;;;;;;;3.90;0.73;;;21.50;91.70;;;;;;7356532;32;20134;-64
2022/07/06 11:14:51;;;;;;;4.28;0.60;;;21.70;91.20;;;;;;7356886;32;20112;-65
2022/07/06 11:19:03;;;;;;;6.18;0.88;;;21.90;92.10;;;;;;7356573;32;20480;-65
2022/07/06 11:23:05;;;;;;;3.20;0.77;;;22.50;87.20;;;;;;7357342;32;20095;-65
2022/07/06 11:27:07;;;;;;;2.80;0.70;;;22.10;91.20;;;;;;7357103;32;20103;-65
2022/07/06 11:31:10;;;;;;;4.78;0.77;;;21.40;89.40;;;;;;7355629;32;20181;-65
2022/07/06 11:35:12;;;;;;;4.20;0.60;;;21.20;91.40;;;;;;7358183;32;20195;-65
2022/07/06 11:39:14;;;;;;;2.47;0.40;;;21.40;91.70;;;;;;7361052;32;20118;-65
2022/07/06 11:43:16;;;;;;;1.70;0.68;;;22.20;89.00;;;;;;7338324;32;20127;-65
2022/07/06 11:47:20;;;;;;;2.70;0.52;;;22.30;90.20;;;;;;7335753;32;20558;-66
2022/07/06 11:51:26;;;;;;;;;;;22.40;86.40;;;;;;7345055;32;20103;-65
2022/07/06 11:55:28;;;;;;;2.75;0.73;;;21.70;90.50;;;;;;7353768;32;20010;-65
2022/07/06 11:59:32;;;;;;;3.35;0.57;;;21.40;91.00;;;;;;7351846;32;20194;-65
2022/07/06 12:03:35;;;;;;;2.30;0.50;;;21.10;91.00;;;;;;7334577;32;20774;-65
2022/07/06 12:07:37;;;;;;;4.43;0.57;;;20.70;91.60;;;;;;7334665;32;20119;-65
2022/07/06 12:11:40;;;;;;;4.37;0.60;;;20.50;93.40;;;;;;7349399;32;20218;-65
2022/07/06 12:15:42;;;;;;;2.28;0.47;;;20.60;93.30;;;;;;7360540;32;20107;-65
2022/07/06 12:19:44;;;;;;;2.85;0.50;;;20.60;91.20;;;;;;7359451;32;20096;-65
2022/07/06 12:23:48;;;;;;;1.40;0.40;;;20.40;92.30;;;;;;7360303;32;20157;-65
2022/07/06 12:27:50;;;;;;;1.83;0.43;;;20.40;94.00;;;;;;7359135;32;20564;-65
2022/07/06 12:31:56;;;;;;;2.10;0.40;;;20.60;92.50;;;;;;7359884;32;20164;-65
2022/07/06 12:36:09;;;;;;;2.10;0.33;;;20.70;92.00;;;;;;7359736;32;20107;-65
2022/07/06 12:40:14;;;;;;;3.08;0.60;;;20.70;93.90;;;;;;7358979;32;20288;-65
2022/07/06 12:44:20;;;;;;;2.17;0.70;;;21.00;93.90;;;;;;7359648;32;20122;-65
2022/07/06 12:48:21;;;;;;;2.25;0.55;;;20.90;93.60;;;;;;7358016;32;20168;-64
2022/07/06 12:52:28;;;;;;;2.15;0.40;;;20.80;93.20;;;;;;7355622;32;20591;-65
2022/07/06 12:56:29;;;;;;;3.80;0.50;;;20.70;93.20;;;;;;7351875;32;20514;-65
2022/07/06 13:00:45;;;;;;;3.35;0.70;;;20.70;93.10;;;;;;7358785;32;20196;-65
2022/07/06 13:05:02;;;;;;;2.50;0.45;;;20.70;93.80;;;;;;7359578;32;20746;-66
2022/07/06 13:09:04;;;;;;;2.27;0.40;;;20.80;95.50;;;;;;7358422;32;20221;-66
2022/07/06 13:13:08;;;;;;;1.67;0.40;;;20.80;93.60;;;;;;7359265;32;20218;-65
2022/07/06 13:17:10;;;;;;;2.03;0.50;;;21.00;93.30;;;;;;7359500;32;20152;-65
2022/07/06 13:21:12;;;;;;;3.78;0.52;;;21.40;93.30;;;;;;7358184;32;20427;-65
2022/07/06 13:25:14;;;;;;;6.40;0.60;;;21.80;91.70;;;;;;7358536;32;20118;-65
2022/07/06 13:29:16;;;;;;;4.40;0.60;;;22.00;90.30;;;;;;7356486;32;20103;-65
2022/07/06 13:33:17;;;;;;;1.87;0.35;;;21.60;92.30;;;;;;7358706;32;20452;-65
2022/07/06 13:37:23;;;;;;;2.42;0.45;;;22.20;91.10;;;;;;7358128;32;20099;-66
2022/07/06 13:41:25;;;;;;;2.60;0.80;;;23.10;90.10;;;;;;7357212;32;20119;-65
2022/07/06 13:45:26;;;;;;;3.95;0.50;;;23.70;89.20;;;;;;7357025;32;20119;-66
2022/07/06 13:49:28;;;;;;;2.90;0.40;;;23.80;85.60;;;;;;7357555;32;20126;-65
2022/07/06 13:53:33;;;;;;;4.95;0.55;;;23.10;84.70;;;;;;7357413;32;20167;-65
2022/07/06 13:57:35;;;;;;;4.00;0.70;;;22.60;91.20;;;;;;7356793;32;20187;-65
2022/07/06 14:01:36;;;;;;;1.80;0.50;;;22.60;86.50;;;;;;7355899;32;20148;-65
2022/07/06 14:05:39;;;;;;;1.45;0.40;;;23.00;84.20;;;;;;7357906;32;20487;-66
2022/07/06 14:09:40;;;;;;;1.87;0.77;;;23.30;85.40;;;;;;7356677;32;20137;-65
2022/07/06 14:13:42;;;;;;;4.20;0.57;;;22.80;85.00;;;;;;7357240;32;20405;-66
2022/07/06 14:17:44;;;;;;;1.27;0.52;;;22.30;85.00;;;;;;7356515;32;20180;-65
2022/07/06 14:21:46;;;;;;;4.28;0.50;;;21.90;89.40;;;;;;7357572;32;20119;-65
2022/07/06 14:25:51;;;;;;;4.12;0.75;;;21.80;90.50;;;;;;7357323;32;20483;-66
2022/07/06 14:29:53;;;;;;;1.52;0.57;;;22.80;86.70;;;;;;7354571;32;20179;-65
2022/07/06 14:33:55;;;;;;;3.05;0.98;;;23.00;86.00;;;;;;7356243;32;20115;-66
2022/07/06 14:37:56;;;;;;;4.95;0.60;;;23.40;86.60;;;;;;7356493;32;20156;-65
2022/07/06 14:41:58;;;;;;;5.28;0.80;;;23.20;85.30;;;;;;7357007;32;20123;-66
2022/07/06 14:46:00;;;;;;;1.73;0.60;;;23.30;83.30;;;;;;7356908;32;20099;-66
2022/07/06 14:50:03;;;;;;;7.60;0.40;;;23.50;85.20;;;;;;7355498;32;20133;-65
2022/07/06 14:54:05;;;;;;;8.27;0.90;;;23.60;82.80;;;;;;7354994;32;20125;-65
2022/07/06 14:58:07;;;;;;;17.50;1.02;;;23.40;82.20;;;;;;7348472;32;20456;-66
2022/07/06 15:02:09;;;;;;;2.08;0.40;;;23.40;81.00;;;;;;7356274;32;20160;-66
2022/07/06 15:06:10;;;;;;;2.87;0.60;;;23.30;82.20;;;;;;7355714;32;20262;-65
2022/07/06 15:10:32;;;;;;;3.45;0.50;;;22.50;79.30;;;;;;7357512;32;20152;-65
2022/07/06 15:14:34;;;;;;;2.78;0.50;;;22.30;82.90;;;;;;7362390;32;20140;-66
2022/07/06 15:18:36;;;;;;;3.10;0.40;;;22.30;83.60;;;;;;7360403;32;20099;-65
2022/07/06 15:22:38;;;;;;;2.85;0.37;;;22.50;83.60;;;;;;7360586;32;20122;-66
2022/07/06 15:26:40;;;;;;;2.12;0.43;;;22.40;85.30;;;;;;7361809;32;20103;-66
2022/07/06 15:30:42;;;;;;;3.85;0.95;;;22.50;83.80;;;;;;7359464;32;20154;-65
2022/07/06 15:34:44;;;;;;;5.60;0.80;;;22.50;83.30;;;;;;7360465;32;20111;-65
2022/07/06 15:38:45;;;;;;;2.40;0.40;;;22.00;85.40;;;;;;7359024;32;20103;-65
2022/07/06 15:42:47;;;;;;;2.42;0.40;;;21.70;86.10;;;;;;7360586;32;20555;-65
2022/07/06 15:46:49;;;;;;;2.72;0.50;;;21.70;86.50;;;;;;7360346;32;20136;-65
2022/07/06 15:50:51;;;;;;;4.47;0.73;;;21.80;86.40;;;;;;7342650;32;20198;-65
2022/07/06 15:54:53;;;;;;;0.85;0.30;;;21.80;86.30;;;;;;7348157;32;20464;-65
2022/07/06 15:58:55;;;;;;;3.00;0.40;;;21.70;86.60;;;;;;7359375;32;20202;-65
2022/07/06 16:02:56;;;;;;;2.42;0.40;;;21.60;88.40;;;;;;7360254;32;20100;-65
2022/07/06 16:06:58;;;;;;;1.48;0.30;;;21.80;89.70;;;;;;7359842;32;20267;-65
2022/07/06 16:11:20;;;;;;;3.72;0.60;;;21.80;88.20;;;;;;7358660;32;20099;-65
2022/07/06 16:15:23;;;;;;;1.40;0.50;;;21.80;87.90;;;;;;7359681;32;20170;-63
2022/07/06 16:19:24;;;;;;;2.95;1.12;;;21.50;90.00;;;;;;7358854;32;20100;-64
2022/07/06 16:23:26;;;;;;;2.53;0.52;;;21.20;89.60;;;;;;7359683;32;20122;-64
2022/07/06 16:27:29;;;;;;;1.98;0.50;;;21.30;90.50;;;;;;7359510;32;20099;-65
2022/07/06 16:31:31;;;;;;;0.50;0.30;;;21.30;90.50;;;;;;7359237;32;20612;-65
2022/07/06 16:35:33;;;;;;;3.95;0.50;;;21.30;90.40;;;;;;7359614;32;20099;-65
2022/07/06 16:39:35;;;;;;;1.62;0.57;;;21.40;90.50;;;;;;7357729;32;20103;-65
2022/07/06 16:43:37;;;;;;;3.92;0.88;;;21.40;90.10;;;;;;7359069;32;20233;-66
2022/07/06 16:47:39;;;;;;;2.75;0.60;;;21.20;91.00;;;;;;7358646;32;20183;-66
2022/07/06 16:51:41;;;;;;;2.80;0.60;;;21.10;90.30;;;;;;7359083;32;20510;-65
2022/07/06 16:55:43;;;;;;;2.80;0.40;;;20.90;91.70;;;;;;7356572;32;20171;-65
2022/07/06 16:59:44;;;;;;;3.15;0.45;;;20.90;91.10;;;;;;7357180;32;20104;-66
2022/07/06 17:03:46;;;;;;;1.45;0.40;;;21.00;90.10;;;;;;7358840;32;20190;-65
2022/07/06 17:07:48;;;;;;;1.80;0.50;;;21.10;90.40;;;;;;7358132;32;20427;-66
2022/07/06 17:11:50;;;;;;;2.90;0.62;;;21.00;91.30;;;;;;7356303;32;20111;-65
2022/07/06 17:15:52;;;;;;;2.45;0.50;;;21.00;90.70;;;;;;7356363;32;20442;-66
2022/07/06 17:19:56;;;;;;;1.95;0.60;;;20.80;91.30;;;;;;7357932;32;20198;-65
2022/07/06 17:23:58;;;;;;;2.28;0.60;;;20.60;92.00;;;;;;7359122;32;20164;-64
2022/07/06 17:28:00;;;;;;;1.37;0.70;;;20.50;92.70;;;;;;7357846;32;20133;-65
2022/07/06 17:32:02;;;;;;;2.78;0.40;;;20.40;93.80;;;;;;7358409;32;20239;-64
2022/07/06 17:36:12;;;;;;;1.45;0.50;;;20.40;92.90;;;;;;7358553;32;20235;-65
2022/07/06 17:40:14;;;;;;;4.07;0.35;;;20.30;93.40;;;;;;7357271;32;20484;-64
2022/07/06 17:44:16;;;;;;;4.82;0.60;;;20.30;95.20;;;;;;7357738;32;20505;-64
2022/07/06 17:48:17;;;;;;;2.80;1.08;;;20.20;95.30;;;;;;7355614;32;20504;-65
2022/07/06 17:52:19;;;;;;;5.15;0.70;;;20.20;94.70;;;;;;7357923;32;20150;-65
2022/07/06 17:56:21;;;;;;;1.70;0.37;;;20.20;94.30;;;;;;7356783;32;20613;-65
2022/07/06 18:00:23;;;;;;;4.00;0.57;;;20.30;94.00;;;;;;7357481;32;20241;-65
2022/07/06 18:04:25;;;;;;;2.50;0.62;;;20.20;94.60;;;;;;7357942;32;20269;-65
2022/07/06 18:08:26;;;;;;;5.22;0.70;;;20.10;95.80;;;;;;7357895;32;20173;-65
2022/07/06 18:12:28;;;;;;;4.37;0.60;;;20.00;96.00;;;;;;7358024;32;20449;-64
2022/07/06 18:16:30;;;;;;;2.30;0.88;;;20.00;96.20;;;;;;7357521;32;20122;-64
2022/07/06 18:20:32;;;;;;;2.80;0.50;;;20.00;96.80;;;;;;7357039;32;20194;-65
2022/07/06 18:24:34;;;;;;;1.60;0.60;;;19.80;96.50;;;;;;7357730;32;20111;-65
2022/07/06 18:28:36;;;;;;;2.08;0.80;;;19.90;96.30;;;;;;7356499;32;20107;-65
2022/07/06 18:32:38;;;;;;;5.25;0.95;;;19.80;97.90;;;;;;7356572;32;20103;-65
2022/07/06 18:36:40;;;;;;;3.15;0.60;;;19.80;99.10;;;;;;7332544;32;20161;-64
2022/07/06 18:40:41;;;;;;;1.00;0.40;;;19.80;99.00;;;;;;7331043;32;20198;-65
2022/07/06 18:44:43;;;;;;;2.67;0.57;;;19.80;98.80;;;;;;7348360;32;20172;-65
2022/07/06 18:48:46;;;;;;;4.65;0.77;;;19.60;99.90;;;;;;7361041;32;20103;-65
2022/07/06 18:52:48;;;;;;;2.12;0.55;;;19.60;98.70;;;;;;7362555;32;20119;-66
2022/07/06 18:56:49;;;;;;;1.40;0.52;;;19.50;99.90;;;;;;7361980;32;20107;-65
2022/07/06 19:00:51;;;;;;;4.35;0.75;;;19.60;99.10;;;;;;7361780;32;20164;-65
2022/07/06 19:04:53;;;;;;;2.28;0.65;;;19.40;99.10;;;;;;7362522;32;20566;-65
2022/07/06 19:08:58;;;;;;;2.33;0.60;;;19.40;99.90;;;;;;7359926;32;20107;-65
2022/07/06 19:13:00;;;;;;;17.30;13.55;;;19.40;99.90;;;;;;7362171;32;20103;-65
2022/07/06 19:17:02;;;;;;;2.58;0.60;;;19.40;99.90;;;;;;7362161;32;20273;-66
2022/07/06 19:21:05;;;;;;;1.70;0.60;;;19.40;99.90;;;;;;7361234;32;20103;-66
2022/07/06 19:25:08;;;;;;;3.42;0.62;;;19.40;99.90;;;;;;7360824;32;20127;-67
2022/07/06 19:29:09;;;;;;;4.40;0.80;;;19.40;99.90;;;;;;7360264;32;20179;-65
2022/07/06 19:33:11;;;;;;;2.67;0.70;;;19.40;99.70;;;;;;7361808;32;20194;-65
2022/07/06 19:37:13;;;;;;;4.05;1.00;;;19.40;99.90;;;;;;7360950;32;20100;-65
2022/07/06 19:41:15;;;;;;;5.95;0.70;;;19.40;99.60;;;;;;7359829;32;20266;-65
2022/07/06 19:45:17;;;;;;;4.43;0.90;;;19.40;99.90;;;;;;7360565;32;20169;-65
2022/07/06 19:49:19;;;;;;;1.55;0.75;;;19.30;99.90;;;;;;7334743;32;20115;-65
2022/07/06 19:53:24;;;;;;;6.28;0.75;;;19.30;99.90;;;;;;7339129;32;20175;-65
2022/07/06 19:57:27;;;;;;;3.40;0.70;;;19.30;99.90;;;;;;7359839;32;20209;-65
2022/07/06 20:01:29;;;;;;;1.75;0.90;;;19.20;99.90;;;;;;7360240;32;20143;-61
2022/07/06 20:05:31;;;;;;;4.07;0.80;;;19.20;99.90;;;;;;7360901;32;20111;-61
2022/07/06 20:09:33;;;;;;;4.68;0.70;;;19.20;99.90;;;;;;7360216;32;20141;-61
2022/07/06 20:13:35;;;;;;;3.10;1.00;;;19.10;99.90;;;;;;7360953;32;20168;-62
2022/07/06 20:17:37;;;;;;;5.65;0.80;;;19.10;99.90;;;;;;7359262;32;20153;-63
2022/07/06 20:21:38;;;;;;;1.67;0.65;;;19.00;99.90;;;;;;7359363;32;20167;-62
2022/07/06 20:25:40;;;;;;;2.17;0.70;;;19.00;99.90;;;;;;7359501;32;20187;-61
2022/07/06 20:29:42;;;;;;;2.42;0.82;;;19.00;99.90;;;;;;7358232;32;20194;-62
2022/07/06 20:33:44;;;;;;;2.20;0.77;;;19.00;99.90;;;;;;7360091;32;20480;-61
2022/07/06 20:37:45;;;;;;;3.53;0.80;;;18.90;99.90;;;;;;7358554;32;20153;-61
2022/07/06 20:41:48;;;;;;;4.07;0.68;;;19.00;99.90;;;;;;7359078;32;20164;-63
2022/07/06 20:45:50;;;;;;;6.68;0.90;;;19.00;99.90;;;;;;7358597;32;20303;-62
2022/07/06 20:49:52;;;;;;;2.47;0.73;;;18.90;99.90;;;;;;7332655;32;20218;-62
2022/07/06 20:53:54;;;;;;;3.72;1.02;;;18.80;99.90;;;;;;7341152;32;20713;-63
2022/07/06 20:57:56;;;;;;;4.45;0.70;;;18.80;99.90;;;;;;7357777;32;20179;-63
2022/07/06 21:01:59;;;;;;;2.83;0.70;;;18.80;99.90;;;;;;7359214;32;20217;-62
2022/07/06 21:06:01;;;;;;;5.43;0.95;;;18.80;99.90;;;;;;7358725;32;20125;-62